sensor_id;sensor_type;location;lat;lon;timestamp;P1;durP1;ratioP1;P2;durP2;ratioP2
69170;SDS011;56279;47.902;12.308;2023-12-28T00:01:06;7.38;;;3.72;;
69170;SDS011;56279;47.902;12.308;2023-12-28T00:03:07;9.88;;;4.03;;
69170;SDS011;56279;47.902;12.308;2023-12-28T00:05:09;8.82;;;4.07;;
69170;SDS011;56279;47.902;12.308;2023-12-28T00:07:10;6.75;;;3.38;;
69170;SDS011;56279;47.902;12.308;2023-12-28T00:09:12;5.63;;;2.60;;
69170;SDS011;56279;47.902;12.308;2023-12-28T00:11:14;5.75;;;2.83;;
69170;SDS011;56279;47.902;12.308;2023-12-28T00:13:15;6.45;;;2.95;;
69170;SDS011;56279;47.902;12.308;2023-12-28T00:15:17;5.70;;;2.70;;
69170;SDS011;56279;47.902;12.308;2023-12-28T00:17:18;5.20;;;2.40;;
69170;SDS011;56279;47.902;12.308;2023-12-28T00:19:19;4.10;;;2.30;;
69170;SDS011;56279;47.902;12.308;2023-12-28T00:21:21;3.70;;;2.00;;
69170;SDS011;56279;47.902;12.308;2023-12-28T00:23:23;5.57;;;2.15;;
69170;SDS011;56279;47.902;12.308;2023-12-28T00:25:24;4.05;;;2.08;;
69170;SDS011;56279;47.902;12.308;2023-12-28T00:27:25;4.68;;;2.47;;
69170;SDS011;56279;47.902;12.308;2023-12-28T00:29:27;3.47;;;1.80;;
69170;SDS011;56279;47.902;12.308;2023-12-28T00:31:29;5.28;;;1.92;;
69170;SDS011;56279;47.902;12.308;2023-12-28T00:33:32;4.18;;;1.85;;
69170;SDS011;56279;47.902;12.308;2023-12-28T00:35:34;5.78;;;2.53;;
69170;SDS011;56279;47.902;12.308;2023-12-28T00:37:35;4.57;;;2.10;;
69170;SDS011;56279;47.902;12.308;2023-12-28T00:39:36;4.80;;;2.00;;
69170;SDS011;56279;47.902;12.308;2023-12-28T00:41:39;4.43;;;2.28;;
69170;SDS011;56279;47.902;12.308;2023-12-28T00:43:40;3.55;;;1.90;;
69170;SDS011;56279;47.902;12.308;2023-12-28T00:45:41;4.18;;;1.80;;
69170;SDS011;56279;47.902;12.308;2023-12-28T00:47:43;3.17;;;1.70;;
69170;SDS011;56279;47.902;12.308;2023-12-28T00:49:45;3.30;;;1.80;;
69170;SDS011;56279;47.902;12.308;2023-12-28T00:51:46;3.03;;;1.73;;
69170;SDS011;56279;47.902;12.308;2023-12-28T00:53:47;3.63;;;1.50;;
69170;SDS011;56279;47.902;12.308;2023-12-28T00:55:48;2.95;;;1.70;;
69170;SDS011;56279;47.902;12.308;2023-12-28T01:03:01;2.97;;;1.48;;
69170;SDS011;56279;47.902;12.308;2023-12-28T01:05:03;2.30;;;1.50;;
69170;SDS011;56279;47.902;12.308;2023-12-28T01:07:07;2.58;;;1.40;;
69170;SDS011;56279;47.902;12.308;2023-12-28T01:09:11;3.58;;;1.42;;
69170;SDS011;56279;47.902;12.308;2023-12-28T01:16:08;3.85;;;1.63;;
69170;SDS011;56279;47.902;12.308;2023-12-28T01:18:09;4.05;;;1.70;;
69170;SDS011;56279;47.902;12.308;2023-12-28T01:20:10;4.35;;;2.05;;
69170;SDS011;56279;47.902;12.308;2023-12-28T01:22:12;3.80;;;1.80;;
69170;SDS011;56279;47.902;12.308;2023-12-28T01:24:13;3.78;;;1.65;;
69170;SDS011;56279;47.902;12.308;2023-12-28T01:26:17;4.65;;;1.95;;
69170;SDS011;56279;47.902;12.308;2023-12-28T01:33:17;3.70;;;1.60;;
69170;SDS011;56279;47.902;12.308;2023-12-28T01:35:18;3.28;;;1.65;;
69170;SDS011;56279;47.902;12.308;2023-12-28T01:37:19;4.30;;;1.83;;
69170;SDS011;56279;47.902;12.308;2023-12-28T01:39:22;4.22;;;1.98;;
69170;SDS011;56279;47.902;12.308;2023-12-28T01:41:23;4.93;;;2.28;;
69170;SDS011;56279;47.902;12.308;2023-12-28T01:43:24;5.00;;;2.00;;
69170;SDS011;56279;47.902;12.308;2023-12-28T01:45:26;4.25;;;1.95;;
69170;SDS011;56279;47.902;12.308;2023-12-28T01:47:27;4.50;;;2.30;;
69170;SDS011;56279;47.902;12.308;2023-12-28T01:49:30;4.65;;;2.00;;
69170;SDS011;56279;47.902;12.308;2023-12-28T01:51:32;4.35;;;2.15;;
69170;SDS011;56279;47.902;12.308;2023-12-28T01:53:34;4.03;;;2.10;;
69170;SDS011;56279;47.902;12.308;2023-12-28T01:55:36;4.18;;;1.77;;
69170;SDS011;56279;47.902;12.308;2023-12-28T01:57:39;4.65;;;2.00;;
69170;SDS011;56279;47.902;12.308;2023-12-28T01:59:41;4.63;;;2.15;;
69170;SDS011;56279;47.902;12.308;2023-12-28T02:01:43;4.93;;;2.00;;
69170;SDS011;56279;47.902;12.308;2023-12-28T02:03:45;5.25;;;2.58;;
69170;SDS011;56279;47.902;12.308;2023-12-28T02:05:46;7.63;;;2.85;;
69170;SDS011;56279;47.902;12.308;2023-12-28T02:07:48;4.50;;;2.45;;
69170;SDS011;56279;47.902;12.308;2023-12-28T02:09:50;6.80;;;2.38;;
69170;SDS011;56279;47.902;12.308;2023-12-28T02:11:52;5.03;;;2.80;;
69170;SDS011;56279;47.902;12.308;2023-12-28T02:16:46;3.58;;;1.77;;
69170;SDS011;56279;47.902;12.308;2023-12-28T02:18:51;3.33;;;1.90;;
69170;SDS011;56279;47.902;12.308;2023-12-28T02:20:58;4.00;;;2.05;;
69170;SDS011;56279;47.902;12.308;2023-12-28T02:23:03;2.90;;;1.70;;
69170;SDS011;56279;47.902;12.308;2023-12-28T06:04:41;4.57;;;1.50;;
69170;SDS011;56279;47.902;12.308;2023-12-28T06:06:42;2.10;;;1.30;;
69170;SDS011;56279;47.902;12.308;2023-12-28T06:08:47;1.50;;;1.30;;
69170;SDS011;56279;47.902;12.308;2023-12-28T06:10:49;1.65;;;1.13;;
69170;SDS011;56279;47.902;12.308;2023-12-28T06:17:54;1.65;;;1.30;;
69170;SDS011;56279;47.902;12.308;2023-12-28T06:19:55;2.60;;;1.50;;
69170;SDS011;56279;47.902;12.308;2023-12-28T06:21:59;2.20;;;1.38;;
69170;SDS011;56279;47.902;12.308;2023-12-28T06:24:02;1.70;;;1.33;;
69170;SDS011;56279;47.902;12.308;2023-12-28T06:34:15;1.50;;;1.17;;
69170;SDS011;56279;47.902;12.308;2023-12-28T06:36:17;2.20;;;1.20;;
69170;SDS011;56279;47.902;12.308;2023-12-28T06:38:19;1.48;;;1.20;;
69170;SDS011;56279;47.902;12.308;2023-12-28T06:40:21;2.05;;;1.20;;
69170;SDS011;56279;47.902;12.308;2023-12-28T06:42:22;2.83;;;1.30;;
69170;SDS011;56279;47.902;12.308;2023-12-28T06:44:24;2.10;;;1.42;;
69170;SDS011;56279;47.902;12.308;2023-12-28T06:46:29;1.88;;;1.30;;
69170;SDS011;56279;47.902;12.308;2023-12-28T07:03:10;1.92;;;1.20;;
69170;SDS011;56279;47.902;12.308;2023-12-28T07:05:11;2.78;;;1.40;;
69170;SDS011;56279;47.902;12.308;2023-12-28T07:07:17;4.97;;;1.67;;
69170;SDS011;56279;47.902;12.308;2023-12-28T07:09:19;2.85;;;1.40;;
69170;SDS011;56279;47.902;12.308;2023-12-28T07:11:23;3.33;;;1.50;;
69170;SDS011;56279;47.902;12.308;2023-12-28T07:34:31;3.47;;;1.42;;
69170;SDS011;56279;47.902;12.308;2023-12-28T07:36:32;4.38;;;1.90;;
69170;SDS011;56279;47.902;12.308;2023-12-28T07:38:34;3.75;;;1.50;;
69170;SDS011;56279;47.902;12.308;2023-12-28T07:40:36;4.47;;;2.28;;
69170;SDS011;56279;47.902;12.308;2023-12-28T07:42:41;5.82;;;2.28;;
69170;SDS011;56279;47.902;12.308;2023-12-28T07:44:42;6.32;;;2.28;;
69170;SDS011;56279;47.902;12.308;2023-12-28T07:46:44;5.18;;;2.40;;
69170;SDS011;56279;47.902;12.308;2023-12-28T07:48:45;4.45;;;2.60;;
69170;SDS011;56279;47.902;12.308;2023-12-28T07:50:47;5.90;;;2.90;;
69170;SDS011;56279;47.902;12.308;2023-12-28T07:52:50;7.40;;;2.63;;
69170;SDS011;56279;47.902;12.308;2023-12-28T07:54:51;6.72;;;2.78;;
69170;SDS011;56279;47.902;12.308;2023-12-28T07:56:52;8.20;;;3.05;;
69170;SDS011;56279;47.902;12.308;2023-12-28T07:58:54;7.30;;;3.25;;
69170;SDS011;56279;47.902;12.308;2023-12-28T08:03:35;5.32;;;2.70;;
69170;SDS011;56279;47.902;12.308;2023-12-28T08:05:36;6.95;;;3.10;;
69170;SDS011;56279;47.902;12.308;2023-12-28T08:07:38;8.80;;;3.45;;
69170;SDS011;56279;47.902;12.308;2023-12-28T08:09:39;5.95;;;2.97;;
69170;SDS011;56279;47.902;12.308;2023-12-28T08:11:40;6.30;;;3.35;;
69170;SDS011;56279;47.902;12.308;2023-12-28T08:13:42;8.45;;;3.58;;
69170;SDS011;56279;47.902;12.308;2023-12-28T08:15:44;7.28;;;3.70;;
69170;SDS011;56279;47.902;12.308;2023-12-28T08:17:47;5.75;;;3.00;;
69170;SDS011;56279;47.902;12.308;2023-12-28T08:19:50;7.47;;;3.05;;
69170;SDS011;56279;47.902;12.308;2023-12-28T08:21:51;5.47;;;2.90;;
69170;SDS011;56279;47.902;12.308;2023-12-28T08:23:53;10.38;;;3.10;;
69170;SDS011;56279;47.902;12.308;2023-12-28T08:25:54;6.72;;;2.60;;
69170;SDS011;56279;47.902;12.308;2023-12-28T08:27:55;6.60;;;3.20;;
69170;SDS011;56279;47.902;12.308;2023-12-28T08:29:56;5.53;;;2.83;;
69170;SDS011;56279;47.902;12.308;2023-12-28T08:32:00;6.35;;;2.30;;
69170;SDS011;56279;47.902;12.308;2023-12-28T08:34:02;7.10;;;2.50;;
69170;SDS011;56279;47.902;12.308;2023-12-28T08:36:09;7.80;;;3.03;;
69170;SDS011;56279;47.902;12.308;2023-12-28T08:38:11;4.05;;;2.63;;
69170;SDS011;56279;47.902;12.308;2023-12-28T08:40:14;4.55;;;2.47;;
69170;SDS011;56279;47.902;12.308;2023-12-28T08:42:15;6.75;;;2.60;;
69170;SDS011;56279;47.902;12.308;2023-12-28T08:44:17;5.57;;;2.40;;
69170;SDS011;56279;47.902;12.308;2023-12-28T08:46:18;4.25;;;2.17;;
69170;SDS011;56279;47.902;12.308;2023-12-28T08:48:20;8.30;;;2.30;;
69170;SDS011;56279;47.902;12.308;2023-12-28T08:50:23;6.50;;;2.55;;
69170;SDS011;56279;47.902;12.308;2023-12-28T08:52:24;5.20;;;2.40;;
69170;SDS011;56279;47.902;12.308;2023-12-28T08:54:27;3.42;;;1.88;;
69170;SDS011;56279;47.902;12.308;2023-12-28T08:56:28;5.05;;;2.17;;
69170;SDS011;56279;47.902;12.308;2023-12-28T08:58:31;7.40;;;3.35;;
69170;SDS011;56279;47.902;12.308;2023-12-28T09:00:32;6.85;;;2.70;;
69170;SDS011;56279;47.902;12.308;2023-12-28T09:02:33;4.70;;;2.10;;
69170;SDS011;56279;47.902;12.308;2023-12-28T09:04:35;4.15;;;2.03;;
69170;SDS011;56279;47.902;12.308;2023-12-28T09:06:36;3.92;;;2.00;;
69170;SDS011;56279;47.902;12.308;2023-12-28T09:08:40;4.60;;;1.75;;
69170;SDS011;56279;47.902;12.308;2023-12-28T09:10:44;5.30;;;1.95;;
69170;SDS011;56279;47.902;12.308;2023-12-28T09:12:46;8.73;;;3.92;;
69170;SDS011;56279;47.902;12.308;2023-12-28T09:14:47;7.80;;;3.97;;
69170;SDS011;56279;47.902;12.308;2023-12-28T09:16:49;10.40;;;4.65;;
69170;SDS011;56279;47.902;12.308;2023-12-28T09:18:50;14.38;;;5.10;;
69170;SDS011;56279;47.902;12.308;2023-12-28T09:20:51;10.95;;;4.20;;
69170;SDS011;56279;47.902;12.308;2023-12-28T09:22:53;8.73;;;3.95;;
69170;SDS011;56279;47.902;12.308;2023-12-28T09:24:57;8.20;;;4.20;;
69170;SDS011;56279;47.902;12.308;2023-12-28T09:49:05;8.55;;;4.15;;
69170;SDS011;56279;47.902;12.308;2023-12-28T09:51:07;10.45;;;4.57;;
69170;SDS011;56279;47.902;12.308;2023-12-28T09:53:12;11.32;;;4.65;;
69170;SDS011;56279;47.902;12.308;2023-12-28T09:55:13;18.15;;;6.93;;
69170;SDS011;56279;47.902;12.308;2023-12-28T09:57:14;18.95;;;8.25;;
69170;SDS011;56279;47.902;12.308;2023-12-28T09:59:16;22.58;;;10.15;;
69170;SDS011;56279;47.902;12.308;2023-12-28T10:01:19;17.50;;;7.88;;
69170;SDS011;56279;47.902;12.308;2023-12-28T10:03:21;21.27;;;10.70;;
69170;SDS011;56279;47.902;12.308;2023-12-28T10:05:22;24.05;;;11.55;;
69170;SDS011;56279;47.902;12.308;2023-12-28T10:07:25;20.77;;;10.43;;
69170;SDS011;56279;47.902;12.308;2023-12-28T10:09:27;22.33;;;10.45;;
69170;SDS011;56279;47.902;12.308;2023-12-28T10:11:29;19.58;;;8.45;;
69170;SDS011;56279;47.902;12.308;2023-12-28T10:13:32;18.02;;;8.38;;
69170;SDS011;56279;47.902;12.308;2023-12-28T10:15:37;16.73;;;9.40;;
69170;SDS011;56279;47.902;12.308;2023-12-28T10:17:38;14.75;;;7.57;;
69170;SDS011;56279;47.902;12.308;2023-12-28T10:19:40;11.23;;;5.65;;
69170;SDS011;56279;47.902;12.308;2023-12-28T10:21:42;12.05;;;5.93;;
69170;SDS011;56279;47.902;12.308;2023-12-28T10:23:44;14.93;;;9.18;;
69170;SDS011;56279;47.902;12.308;2023-12-28T10:25:46;14.90;;;6.88;;
69170;SDS011;56279;47.902;12.308;2023-12-28T10:27:50;13.88;;;5.90;;
69170;SDS011;56279;47.902;12.308;2023-12-28T10:29:53;13.07;;;7.25;;
69170;SDS011;56279;47.902;12.308;2023-12-28T10:31:56;12.63;;;6.63;;
69170;SDS011;56279;47.902;12.308;2023-12-28T10:34:00;13.07;;;6.75;;
69170;SDS011;56279;47.902;12.308;2023-12-28T10:36:05;13.25;;;6.10;;
69170;SDS011;56279;47.902;12.308;2023-12-28T10:38:08;10.95;;;6.13;;
69170;SDS011;56279;47.902;12.308;2023-12-28T10:40:14;11.93;;;6.07;;
69170;SDS011;56279;47.902;12.308;2023-12-28T10:42:26;12.50;;;6.07;;
69170;SDS011;56279;47.902;12.308;2023-12-28T10:44:31;13.05;;;6.53;;
69170;SDS011;56279;47.902;12.308;2023-12-28T10:46:42;15.75;;;7.80;;
69170;SDS011;56279;47.902;12.308;2023-12-28T10:51:30;14.77;;;8.05;;
69170;SDS011;56279;47.902;12.308;2023-12-28T10:53:38;17.83;;;8.13;;
69170;SDS011;56279;47.902;12.308;2023-12-28T10:58:34;15.75;;;8.10;;
69170;SDS011;56279;47.902;12.308;2023-12-28T11:00:39;16.67;;;7.75;;
69170;SDS011;56279;47.902;12.308;2023-12-28T11:02:44;16.45;;;7.70;;
69170;SDS011;56279;47.902;12.308;2023-12-28T11:04:49;17.05;;;7.07;;
69170;SDS011;56279;47.902;12.308;2023-12-28T11:06:52;16.75;;;7.45;;
69170;SDS011;56279;47.902;12.308;2023-12-28T11:08:54;14.68;;;7.53;;
69170;SDS011;56279;47.902;12.308;2023-12-28T11:10:59;19.83;;;8.88;;
69170;SDS011;56279;47.902;12.308;2023-12-28T11:13:08;18.23;;;7.80;;
69170;SDS011;56279;47.902;12.308;2023-12-28T11:15:10;19.30;;;8.82;;
69170;SDS011;56279;47.902;12.308;2023-12-28T11:51:04;17.15;;;8.65;;
69170;SDS011;56279;47.902;12.308;2023-12-28T11:53:05;15.93;;;7.28;;
69170;SDS011;56279;47.902;12.308;2023-12-28T11:55:06;14.75;;;7.22;;
69170;SDS011;56279;47.902;12.308;2023-12-28T11:57:08;15.43;;;6.70;;
69170;SDS011;56279;47.902;12.308;2023-12-28T11:59:12;12.60;;;6.90;;
69170;SDS011;56279;47.902;12.308;2023-12-28T12:01:16;14.07;;;6.85;;
69170;SDS011;56279;47.902;12.308;2023-12-28T12:33:45;13.32;;;6.53;;
69170;SDS011;56279;47.902;12.308;2023-12-28T12:35:47;15.13;;;7.67;;
69170;SDS011;56279;47.902;12.308;2023-12-28T12:37:48;17.35;;;8.43;;
69170;SDS011;56279;47.902;12.308;2023-12-28T12:39:51;16.83;;;7.55;;
69170;SDS011;56279;47.902;12.308;2023-12-28T12:41:53;14.40;;;6.60;;
69170;SDS011;56279;47.902;12.308;2023-12-28T12:43:58;21.98;;;10.00;;
69170;SDS011;56279;47.902;12.308;2023-12-28T12:46:00;22.40;;;10.90;;
69170;SDS011;56279;47.902;12.308;2023-12-28T12:48:02;16.75;;;8.45;;
69170;SDS011;56279;47.902;12.308;2023-12-28T12:50:05;14.32;;;7.63;;
69170;SDS011;56279;47.902;12.308;2023-12-28T12:52:07;15.63;;;7.95;;
69170;SDS011;56279;47.902;12.308;2023-12-28T12:54:08;16.50;;;8.13;;
69170;SDS011;56279;47.902;12.308;2023-12-28T12:56:11;18.93;;;8.60;;
69170;SDS011;56279;47.902;12.308;2023-12-28T12:58:12;24.27;;;11.00;;
69170;SDS011;56279;47.902;12.308;2023-12-28T13:00:17;30.48;;;11.75;;
69170;SDS011;56279;47.902;12.308;2023-12-28T13:02:23;25.15;;;12.15;;
69170;SDS011;56279;47.902;12.308;2023-12-28T13:04:26;24.98;;;11.75;;
69170;SDS011;56279;47.902;12.308;2023-12-28T13:06:27;21.30;;;10.70;;
69170;SDS011;56279;47.902;12.308;2023-12-28T13:08:29;22.52;;;11.18;;
69170;SDS011;56279;47.902;12.308;2023-12-28T13:10:30;26.38;;;10.45;;
69170;SDS011;56279;47.902;12.308;2023-12-28T13:12:32;18.48;;;9.85;;
69170;SDS011;56279;47.902;12.308;2023-12-28T13:14:34;20.98;;;10.98;;
69170;SDS011;56279;47.902;12.308;2023-12-28T13:16:36;23.73;;;11.33;;
69170;SDS011;56279;47.902;12.308;2023-12-28T13:18:37;23.35;;;9.82;;
69170;SDS011;56279;47.902;12.308;2023-12-28T13:20:39;20.27;;;8.10;;
69170;SDS011;56279;47.902;12.308;2023-12-28T13:22:40;17.70;;;8.45;;
69170;SDS011;56279;47.902;12.308;2023-12-28T13:24:41;15.23;;;7.80;;
69170;SDS011;56279;47.902;12.308;2023-12-28T13:26:43;22.30;;;9.37;;
69170;SDS011;56279;47.902;12.308;2023-12-28T13:28:45;18.48;;;8.68;;
69170;SDS011;56279;47.902;12.308;2023-12-28T13:30:46;15.55;;;7.50;;
69170;SDS011;56279;47.902;12.308;2023-12-28T13:32:48;19.45;;;8.02;;
69170;SDS011;56279;47.902;12.308;2023-12-28T13:34:49;15.00;;;7.38;;
69170;SDS011;56279;47.902;12.308;2023-12-28T13:36:54;14.70;;;6.80;;
69170;SDS011;56279;47.902;12.308;2023-12-28T13:38:55;15.15;;;6.93;;
69170;SDS011;56279;47.902;12.308;2023-12-28T13:41:00;13.32;;;7.00;;
69170;SDS011;56279;47.902;12.308;2023-12-28T13:43:04;13.18;;;6.22;;
69170;SDS011;56279;47.902;12.308;2023-12-28T14:55:56;10.60;;;4.63;;
69170;SDS011;56279;47.902;12.308;2023-12-28T14:57:57;12.23;;;5.88;;
69170;SDS011;56279;47.902;12.308;2023-12-28T15:00:00;14.48;;;6.85;;
69170;SDS011;56279;47.902;12.308;2023-12-28T15:02:01;12.55;;;7.20;;
69170;SDS011;56279;47.902;12.308;2023-12-28T15:04:03;15.13;;;7.32;;
69170;SDS011;56279;47.902;12.308;2023-12-28T15:06:04;14.73;;;7.07;;
69170;SDS011;56279;47.902;12.308;2023-12-28T15:08:06;13.43;;;6.70;;
69170;SDS011;56279;47.902;12.308;2023-12-28T15:10:08;11.48;;;6.07;;
69170;SDS011;56279;47.902;12.308;2023-12-28T15:12:10;13.27;;;5.93;;
69170;SDS011;56279;47.902;12.308;2023-12-28T15:14:12;12.10;;;6.07;;
69170;SDS011;56279;47.902;12.308;2023-12-28T15:16:13;12.10;;;6.00;;
69170;SDS011;56279;47.902;12.308;2023-12-28T15:18:16;12.23;;;6.07;;
69170;SDS011;56279;47.902;12.308;2023-12-28T15:20:20;14.23;;;6.57;;
69170;SDS011;56279;47.902;12.308;2023-12-28T15:22:22;15.50;;;7.43;;
69170;SDS011;56279;47.902;12.308;2023-12-28T15:24:24;46.47;;;18.77;;
69170;SDS011;56279;47.902;12.308;2023-12-28T15:26:26;38.63;;;15.55;;
69170;SDS011;56279;47.902;12.308;2023-12-28T15:28:28;22.65;;;10.02;;
69170;SDS011;56279;47.902;12.308;2023-12-28T15:30:29;13.07;;;4.68;;
69170;SDS011;56279;47.902;12.308;2023-12-28T15:32:31;7.78;;;3.85;;
69170;SDS011;56279;47.902;12.308;2023-12-28T15:34:32;7.40;;;3.85;;
69170;SDS011;56279;47.902;12.308;2023-12-28T15:36:34;5.40;;;2.53;;
69170;SDS011;56279;47.902;12.308;2023-12-28T15:38:35;6.72;;;2.45;;
69170;SDS011;56279;47.902;12.308;2023-12-28T15:40:36;6.35;;;2.40;;
69170;SDS011;56279;47.902;12.308;2023-12-28T15:42:38;7.72;;;2.70;;
69170;SDS011;56279;47.902;12.308;2023-12-28T15:44:39;6.57;;;2.72;;
69170;SDS011;56279;47.902;12.308;2023-12-28T15:46:41;5.10;;;2.57;;
69170;SDS011;56279;47.902;12.308;2023-12-28T15:48:43;7.43;;;3.33;;
69170;SDS011;56279;47.902;12.308;2023-12-28T15:50:44;6.22;;;2.70;;
69170;SDS011;56279;47.902;12.308;2023-12-28T15:52:45;14.32;;;6.38;;
69170;SDS011;56279;47.902;12.308;2023-12-28T15:54:47;7.80;;;3.65;;
69170;SDS011;56279;47.902;12.308;2023-12-28T15:56:53;6.87;;;3.33;;
69170;SDS011;56279;47.902;12.308;2023-12-28T15:58:54;9.32;;;4.88;;
69170;SDS011;56279;47.902;12.308;2023-12-28T16:00:55;9.63;;;5.10;;
69170;SDS011;56279;47.902;12.308;2023-12-28T16:02:57;11.07;;;5.53;;
69170;SDS011;56279;47.902;12.308;2023-12-28T16:04:58;7.13;;;3.92;;
69170;SDS011;56279;47.902;12.308;2023-12-28T16:06:59;8.00;;;3.88;;
69170;SDS011;56279;47.902;12.308;2023-12-28T16:09:00;7.22;;;3.38;;
69170;SDS011;56279;47.902;12.308;2023-12-28T16:11:02;8.05;;;3.42;;
69170;SDS011;56279;47.902;12.308;2023-12-28T16:13:05;7.97;;;4.40;;
69170;SDS011;56279;47.902;12.308;2023-12-28T16:15:06;7.13;;;3.38;;
69170;SDS011;56279;47.902;12.308;2023-12-28T16:17:08;6.22;;;3.20;;
69170;SDS011;56279;47.902;12.308;2023-12-28T16:19:11;6.18;;;2.50;;
69170;SDS011;56279;47.902;12.308;2023-12-28T16:21:13;7.75;;;2.47;;
69170;SDS011;56279;47.902;12.308;2023-12-28T16:23:14;6.70;;;2.70;;
69170;SDS011;56279;47.902;12.308;2023-12-28T16:25:16;5.75;;;2.90;;
69170;SDS011;56279;47.902;12.308;2023-12-28T16:27:17;5.32;;;2.50;;
69170;SDS011;56279;47.902;12.308;2023-12-28T16:29:19;9.73;;;3.20;;
69170;SDS011;56279;47.902;12.308;2023-12-28T16:31:20;6.88;;;3.03;;
69170;SDS011;56279;47.902;12.308;2023-12-28T16:33:21;5.80;;;2.63;;
69170;SDS011;56279;47.902;12.308;2023-12-28T16:35:23;6.65;;;3.35;;
69170;SDS011;56279;47.902;12.308;2023-12-28T16:37:25;5.53;;;3.22;;
69170;SDS011;56279;47.902;12.308;2023-12-28T16:39:26;5.90;;;2.60;;
69170;SDS011;56279;47.902;12.308;2023-12-28T16:41:27;10.77;;;4.55;;
69170;SDS011;56279;47.902;12.308;2023-12-28T16:43:29;13.80;;;8.15;;
69170;SDS011;56279;47.902;12.308;2023-12-28T16:45:31;15.57;;;8.43;;
69170;SDS011;56279;47.902;12.308;2023-12-28T16:47:32;26.20;;;15.20;;
69170;SDS011;56279;47.902;12.308;2023-12-28T16:49:34;19.63;;;12.63;;
69170;SDS011;56279;47.902;12.308;2023-12-28T16:51:35;10.85;;;5.72;;
69170;SDS011;56279;47.902;12.308;2023-12-28T16:53:36;15.60;;;8.15;;
69170;SDS011;56279;47.902;12.308;2023-12-28T16:55:38;17.05;;;9.23;;
69170;SDS011;56279;47.902;12.308;2023-12-28T16:57:40;11.53;;;5.50;;
69170;SDS011;56279;47.902;12.308;2023-12-28T16:59:41;13.30;;;6.28;;
69170;SDS011;56279;47.902;12.308;2023-12-28T17:01:43;14.32;;;6.88;;
69170;SDS011;56279;47.902;12.308;2023-12-28T17:03:44;18.35;;;7.80;;
69170;SDS011;56279;47.902;12.308;2023-12-28T17:05:48;15.43;;;7.28;;
69170;SDS011;56279;47.902;12.308;2023-12-28T17:07:50;13.80;;;6.33;;
69170;SDS011;56279;47.902;12.308;2023-12-28T17:09:54;14.25;;;6.57;;
69170;SDS011;56279;47.902;12.308;2023-12-28T17:12:11;10.32;;;5.03;;
69170;SDS011;56279;47.902;12.308;2023-12-28T17:14:18;9.20;;;4.47;;
69170;SDS011;56279;47.902;12.308;2023-12-28T17:16:19;8.30;;;3.70;;
69170;SDS011;56279;47.902;12.308;2023-12-28T17:18:21;8.15;;;3.83;;
69170;SDS011;56279;47.902;12.308;2023-12-28T17:20:22;11.57;;;4.32;;
69170;SDS011;56279;47.902;12.308;2023-12-28T17:22:24;6.53;;;3.50;;
69170;SDS011;56279;47.902;12.308;2023-12-28T17:24:28;6.85;;;2.63;;
69170;SDS011;56279;47.902;12.308;2023-12-28T17:26:34;6.07;;;2.70;;
69170;SDS011;56279;47.902;12.308;2023-12-28T17:31:07;7.07;;;2.78;;
69170;SDS011;56279;47.902;12.308;2023-12-28T17:33:12;6.75;;;2.80;;
69170;SDS011;56279;47.902;12.308;2023-12-28T17:35:17;5.68;;;2.47;;
69170;SDS011;56279;47.902;12.308;2023-12-28T17:37:19;7.15;;;3.17;;
69170;SDS011;56279;47.902;12.308;2023-12-28T17:39:20;5.38;;;2.50;;
69170;SDS011;56279;47.902;12.308;2023-12-28T17:41:24;5.20;;;2.58;;
69170;SDS011;56279;47.902;12.308;2023-12-28T17:43:34;6.07;;;2.85;;
69170;SDS011;56279;47.902;12.308;2023-12-28T17:46:18;5.47;;;2.78;;
69170;SDS011;56279;47.902;12.308;2023-12-28T17:48:30;5.55;;;2.53;;
69170;SDS011;56279;47.902;12.308;2023-12-28T17:50:35;5.37;;;2.27;;
69170;SDS011;56279;47.902;12.308;2023-12-28T17:52:37;3.63;;;2.13;;
69170;SDS011;56279;47.902;12.308;2023-12-28T17:54:38;4.68;;;2.05;;
69170;SDS011;56279;47.902;12.308;2023-12-28T17:56:48;4.47;;;2.20;;
69170;SDS011;56279;47.902;12.308;2023-12-28T17:59:09;6.05;;;2.40;;
69170;SDS011;56279;47.902;12.308;2023-12-28T18:01:11;4.13;;;2.17;;
69170;SDS011;56279;47.902;12.308;2023-12-28T18:03:13;3.72;;;1.80;;
69170;SDS011;56279;47.902;12.308;2023-12-28T18:05:15;4.70;;;2.00;;
69170;SDS011;56279;47.902;12.308;2023-12-28T18:07:16;3.53;;;1.70;;
69170;SDS011;56279;47.902;12.308;2023-12-28T18:09:18;4.47;;;2.05;;
69170;SDS011;56279;47.902;12.308;2023-12-28T18:11:22;3.13;;;1.77;;
69170;SDS011;56279;47.902;12.308;2023-12-28T18:13:24;3.25;;;1.60;;
69170;SDS011;56279;47.902;12.308;2023-12-28T18:15:27;3.92;;;1.80;;
69170;SDS011;56279;47.902;12.308;2023-12-28T18:25:03;3.42;;;1.70;;
69170;SDS011;56279;47.902;12.308;2023-12-28T18:27:05;2.88;;;1.75;;
69170;SDS011;56279;47.902;12.308;2023-12-28T18:29:07;4.43;;;2.00;;
69170;SDS011;56279;47.902;12.308;2023-12-28T18:31:08;3.60;;;1.88;;
69170;SDS011;56279;47.902;12.308;2023-12-28T18:33:10;4.20;;;1.80;;
69170;SDS011;56279;47.902;12.308;2023-12-28T18:35:12;4.30;;;1.95;;
69170;SDS011;56279;47.902;12.308;2023-12-28T18:37:15;4.75;;;2.20;;
69170;SDS011;56279;47.902;12.308;2023-12-28T18:39:21;4.85;;;1.88;;
69170;SDS011;56279;47.902;12.308;2023-12-28T18:41:31;3.42;;;2.05;;
69170;SDS011;56279;47.902;12.308;2023-12-28T18:43:35;5.93;;;2.33;;
69170;SDS011;56279;47.902;12.308;2023-12-28T18:45:36;4.30;;;1.67;;
69170;SDS011;56279;47.902;12.308;2023-12-28T18:47:37;4.72;;;2.05;;
69170;SDS011;56279;47.902;12.308;2023-12-28T18:49:40;3.28;;;1.85;;
69170;SDS011;56279;47.902;12.308;2023-12-28T18:51:45;4.53;;;1.88;;
69170;SDS011;56279;47.902;12.308;2023-12-28T18:53:48;3.13;;;1.57;;
69170;SDS011;56279;47.902;12.308;2023-12-28T19:00:39;3.85;;;1.80;;
69170;SDS011;56279;47.902;12.308;2023-12-28T19:02:42;5.93;;;2.00;;
69170;SDS011;56279;47.902;12.308;2023-12-28T19:04:43;5.13;;;1.75;;
69170;SDS011;56279;47.902;12.308;2023-12-28T19:06:47;4.20;;;2.13;;
69170;SDS011;56279;47.902;12.308;2023-12-28T19:08:50;4.10;;;2.20;;
69170;SDS011;56279;47.902;12.308;2023-12-28T19:13:46;5.07;;;2.85;;
69170;SDS011;56279;47.902;12.308;2023-12-28T19:15:47;5.00;;;2.08;;
69170;SDS011;56279;47.902;12.308;2023-12-28T19:17:49;5.28;;;2.22;;
69170;SDS011;56279;47.902;12.308;2023-12-28T19:19:50;4.07;;;2.35;;
69170;SDS011;56279;47.902;12.308;2023-12-28T19:21:52;4.90;;;2.70;;
69170;SDS011;56279;47.902;12.308;2023-12-28T19:23:54;5.53;;;2.90;;
69170;SDS011;56279;47.902;12.308;2023-12-28T19:25:55;7.87;;;3.30;;
69170;SDS011;56279;47.902;12.308;2023-12-28T19:27:56;5.88;;;3.05;;
69170;SDS011;56279;47.902;12.308;2023-12-28T19:29:57;6.00;;;3.10;;
69170;SDS011;56279;47.902;12.308;2023-12-28T19:31:59;6.10;;;2.60;;
69170;SDS011;56279;47.902;12.308;2023-12-28T19:34:01;5.47;;;2.85;;
69170;SDS011;56279;47.902;12.308;2023-12-28T19:36:02;5.63;;;2.57;;
69170;SDS011;56279;47.902;12.308;2023-12-28T19:38:04;5.97;;;2.85;;
69170;SDS011;56279;47.902;12.308;2023-12-28T19:40:05;5.80;;;2.75;;
69170;SDS011;56279;47.902;12.308;2023-12-28T19:42:07;6.15;;;2.80;;
69170;SDS011;56279;47.902;12.308;2023-12-28T19:44:08;8.95;;;4.72;;
69170;SDS011;56279;47.902;12.308;2023-12-28T19:46:09;8.80;;;3.80;;
69170;SDS011;56279;47.902;12.308;2023-12-28T19:48:11;5.28;;;2.55;;
69170;SDS011;56279;47.902;12.308;2023-12-28T19:50:12;5.25;;;2.40;;
69170;SDS011;56279;47.902;12.308;2023-12-28T19:52:14;5.60;;;2.42;;